createdAt,value
2022-08-30T00:00:11.528Z,3.7
2022-08-30T00:08:18.875Z,4
2022-08-30T00:10:20.713Z,3.2
2022-08-30T00:14:27.747Z,3.1
2022-08-30T00:16:29.495Z,3.5
2022-08-30T00:18:31.335Z,3.4
2022-08-30T00:20:33.171Z,3.1
2022-08-30T00:22:35.017Z,3.5
2022-08-30T00:24:36.847Z,3.9
2022-08-30T00:26:38.704Z,4.2
2022-08-30T00:28:43.802Z,5.8
2022-08-30T00:30:45.658Z,3.8
2022-08-30T00:33:50.013Z,3.4
2022-08-30T00:35:51.860Z,4.2
2022-08-30T00:37:53.670Z,5.5
2022-08-30T00:39:55.510Z,4.3
2022-08-30T00:42:00.675Z,4.7
2022-08-30T00:44:02.468Z,4.4
2022-08-30T00:46:04.333Z,3.4
2022-08-30T00:48:06.124Z,4
2022-08-30T00:50:07.996Z,3.9
2022-08-30T00:52:09.807Z,4.5
2022-08-30T00:54:11.685Z,4.2
2022-08-30T00:56:16.739Z,4.1
2022-08-30T00:58:18.578Z,4.1
2022-08-30T01:00:20.449Z,4.6
2022-08-30T01:02:22.301Z,4.2
2022-08-30T01:06:25.928Z,3.9
2022-08-30T01:08:27.780Z,5.7
2022-08-30T01:10:32.902Z,4.2
2022-08-30T01:12:34.722Z,4.8
2022-08-30T01:14:36.541Z,4.2
2022-08-30T01:16:38.374Z,6
2022-08-30T01:18:40.218Z,4.4
2022-08-30T01:20:42.053Z,5
2022-08-30T01:22:43.887Z,5.2
2022-08-30T01:24:50.539Z,5.9
2022-08-30T01:26:52.348Z,5
2022-08-30T01:33:24.784Z,5.1
2022-08-30T01:37:31.719Z,5.5
2022-08-30T01:43:37.241Z,4.9
2022-08-30T01:45:39.125Z,5.5
2022-08-30T01:47:40.910Z,6
2022-08-30T01:49:42.755Z,6.2
2022-08-30T01:53:49.692Z,5.7
2022-08-30T01:55:51.504Z,6.2
2022-08-30T01:57:53.355Z,6.5
2022-08-30T02:01:57.037Z,6.6
2022-08-30T02:03:58.937Z,6.4
2022-08-30T02:06:03.955Z,7.4
2022-08-30T02:08:05.791Z,7
2022-08-30T02:10:07.640Z,6.5
2022-08-30T02:12:09.442Z,7.3
2022-08-30T02:14:11.307Z,6.5
2022-08-30T02:16:13.209Z,6.5
2022-08-30T02:18:14.948Z,6.5
2022-08-30T02:20:20.045Z,7.3
2022-08-30T02:22:21.868Z,6.8
2022-08-30T02:24:23.700Z,6.8
2022-08-30T02:29:29.919Z,7.3
2022-08-30T02:33:36.823Z,7.2
2022-08-30T02:35:38.655Z,6.5
2022-08-30T02:37:40.503Z,7.6
2022-08-30T02:39:42.379Z,11.8
2022-08-30T02:47:52.942Z,7.3
2022-08-30T02:49:54.795Z,8.2
2022-08-30T02:56:00.271Z,7.5
2022-08-30T02:58:02.160Z,8.8
2022-08-30T03:02:09.073Z,8
2022-08-30T03:04:10.894Z,7.7
2022-08-30T03:06:12.718Z,8.1
2022-08-30T03:08:14.552Z,10
2022-08-30T03:10:16.398Z,8.1
2022-08-30T03:14:20.059Z,9
2022-08-30T03:18:26.990Z,9.3
2022-08-30T03:20:28.789Z,7.4
2022-08-30T03:21:31.344Z,9.4
2022-08-30T03:23:33.170Z,9.3
2022-08-30T03:25:34.997Z,8.9
2022-08-30T03:27:36.867Z,8.9
2022-08-30T03:29:41.915Z,10.5
2022-08-30T03:31:52.836Z,9.8
2022-08-30T03:33:45.582Z,10.2
2022-08-30T03:35:47.422Z,9.3
2022-08-30T03:37:49.238Z,9.5
2022-08-30T03:39:51.104Z,9.6
2022-08-30T03:41:52.906Z,9.6
2022-08-30T03:45:59.921Z,10
2022-08-30T03:48:01.634Z,9.4
2022-08-30T03:52:05.293Z,10.7
2022-08-30T03:56:08.968Z,9.2
2022-08-30T04:00:15.882Z,10.2
2022-08-30T04:04:21.079Z,9.6
2022-08-30T04:06:21.345Z,10.1
2022-08-30T04:08:23.184Z,10.4
2022-08-30T04:12:30.105Z,11.6
2022-08-30T04:14:31.943Z,10.5
2022-08-30T04:16:33.813Z,12.4
2022-08-30T04:21:43.168Z,11.6
2022-08-30T04:23:41.775Z,10.1
2022-08-30T04:25:46.862Z,10.9
2022-08-30T04:29:50.518Z,11.1
2022-08-30T04:33:54.168Z,13.7
2022-08-30T04:35:56.015Z,10.4
2022-08-30T04:37:57.852Z,10.4
2022-08-30T04:40:03.018Z,11.6
2022-08-30T04:42:04.762Z,9.7
2022-08-30T04:44:06.596Z,9.8
2022-08-30T04:46:08.501Z,11
2022-08-30T04:48:10.265Z,10.8
2022-08-30T04:50:12.080Z,10.7
2022-08-30T04:54:18.996Z,12.2
2022-08-30T04:56:20.823Z,10.5
2022-08-30T04:58:22.647Z,10.2
2022-08-30T05:00:24.479Z,11.4
2022-08-30T05:02:26.374Z,10.8
2022-08-30T05:04:28.121Z,11
2022-08-30T05:06:29.950Z,10.2
2022-08-30T05:08:35.019Z,12.7
2022-08-30T05:10:36.837Z,11.9
2022-08-30T05:12:38.666Z,9.8
2022-08-30T05:15:07.433Z,11.2
2022-08-30T05:17:09.253Z,11.5
2022-08-30T05:19:11.045Z,9.5
2022-08-30T05:21:16.121Z,10.4
2022-08-30T05:25:19.796Z,10.3
2022-08-30T05:27:21.616Z,9.6
2022-08-30T05:29:23.484Z,10.2
2022-08-30T05:33:27.107Z,9.4
2022-08-30T05:35:32.167Z,11.1
2022-08-30T05:41:37.676Z,10.4
2022-08-30T05:43:39.499Z,9.5
2022-08-30T05:45:41.315Z,8.5
2022-08-30T05:47:43.321Z,11.5
2022-08-30T05:49:48.219Z,9.4
2022-08-30T05:51:50.062Z,9
2022-08-30T05:53:51.873Z,8.6
2022-08-30T05:55:53.713Z,7.9
2022-08-30T05:57:55.552Z,7.9
2022-08-30T05:59:57.381Z,8.3
2022-08-30T06:01:59.223Z,7.9
2022-08-30T06:04:04.405Z,8.8
2022-08-30T06:06:06.120Z,7.1
2022-08-30T06:08:07.934Z,6.8
2022-08-30T06:09:10.481Z,5.8
2022-08-30T06:11:12.318Z,6.6
2022-08-30T06:13:14.148Z,9.1
2022-08-30T06:15:15.975Z,6.4
2022-08-30T06:17:21.057Z,7.1
2022-08-30T06:19:22.861Z,6.7
2022-08-30T06:21:24.753Z,5.3
2022-08-30T06:23:26.553Z,6.1
2022-08-30T06:25:28.377Z,14.8
2022-08-30T06:27:30.200Z,5.3
2022-08-30T06:29:32.045Z,6.5
2022-08-30T06:31:37.329Z,6.1
2022-08-30T06:33:38.938Z,5.3
2022-08-30T06:35:52.391Z,4.7
2022-08-30T06:37:42.610Z,4
2022-08-30T06:39:44.452Z,3.4
2022-08-30T06:41:46.292Z,3.8
2022-08-30T06:43:49.265Z,2.8
2022-08-30T06:45:53.237Z,3
2022-08-30T06:47:55.081Z,2.3
2022-08-30T06:49:56.867Z,3.2
2022-08-30T06:51:58.702Z,2.7
2022-08-30T06:54:00.527Z,5.4
2022-08-30T06:56:02.381Z,1.7
2022-08-30T06:58:04.178Z,1.7
2022-08-30T07:00:09.287Z,2.4
2022-08-30T07:02:11.195Z,2.2
2022-08-30T07:05:18.545Z,1.8
2022-08-30T07:07:17.234Z,5.1
2022-08-30T07:09:19.086Z,3.2
2022-08-30T07:13:25.670Z,1.9
2022-08-30T07:15:28.888Z,1.6
2022-08-30T07:17:34.549Z,1.4
2022-08-30T07:19:32.219Z,1.5
2022-08-30T07:21:33.881Z,1.3
2022-08-30T07:23:35.534Z,1.1
2022-08-30T07:25:37.186Z,2
2022-08-30T07:29:43.695Z,1.3
2022-08-30T07:31:45.373Z,0.8
2022-08-30T07:33:47.013Z,1.1
2022-08-30T07:35:48.666Z,1.2
2022-08-30T07:37:50.293Z,0.8
2022-08-30T07:41:56.791Z,1.2
2022-08-30T07:43:58.441Z,0.7
2022-08-30T07:46:00.140Z,0.9
2022-08-30T07:50:03.578Z,0.9
2022-08-30T07:52:04.981Z,1.1
2022-08-30T08:00:14.706Z,0.8
2022-08-30T08:01:17.209Z,1.2
2022-08-30T08:03:18.729Z,0.9
2022-08-30T08:05:24.299Z,0.7
2022-08-30T08:09:26.805Z,0.8
2022-08-30T08:13:32.898Z,0.5
2022-08-30T08:15:31.778Z,1.2
2022-08-30T08:17:33.301Z,1
2022-08-30T08:19:34.951Z,0.9
2022-08-30T08:21:36.554Z,0.8
2022-08-30T08:23:41.390Z,0.9
2022-08-30T08:25:43.006Z,0.9
2022-08-30T08:27:44.628Z,0.9
2022-08-30T08:29:46.244Z,0.5
2022-08-30T08:31:47.953Z,0.8
2022-08-30T08:33:49.570Z,1.2
2022-08-30T08:35:51.111Z,0.6
2022-08-30T08:37:55.919Z,1
2022-08-30T08:39:57.657Z,0.8
2022-08-30T08:41:59.185Z,1.2
2022-08-30T08:46:02.512Z,0.7
2022-08-30T08:48:04.286Z,1.2
2022-08-30T08:50:05.670Z,0.4
2022-08-30T08:52:10.471Z,1.3
2022-08-30T08:56:13.726Z,1.4
2022-08-30T08:58:42.089Z,0.9
2022-08-30T09:00:43.696Z,1
2022-08-30T09:02:45.315Z,0.9
2022-08-30T09:10:55.017Z,0.6
2022-08-30T09:12:59.860Z,0.7
2022-08-30T09:14:58.200Z,1
2022-08-30T09:19:04.631Z,0.8
2022-08-30T09:21:06.287Z,1
2022-08-30T09:31:14.349Z,0.8
2022-08-30T09:37:22.368Z,0.6
2022-08-30T09:39:24.037Z,0.5
2022-08-30T09:41:25.618Z,0.6
2022-08-30T09:43:27.239Z,0.7
2022-08-30T09:45:28.875Z,0.8
2022-08-30T09:47:33.701Z,0.5
2022-08-30T09:49:35.361Z,0.8
2022-08-30T09:51:36.960Z,1
2022-08-30T09:52:39.352Z,0.4
2022-08-30T09:54:41.156Z,0.5
2022-08-30T09:58:44.238Z,0.6
2022-08-30T10:06:53.976Z,0.8
2022-08-30T10:08:55.596Z,0.9
2022-08-30T10:10:57.221Z,0.7
2022-08-30T10:12:58.860Z,1.5
2022-08-30T10:15:03.713Z,1
2022-08-30T10:21:08.600Z,0.9
2022-08-30T10:23:10.278Z,0.7
2022-08-30T10:25:11.857Z,0.6
2022-08-30T10:27:13.475Z,0.7
2022-08-30T10:29:18.324Z,0.9
2022-08-30T10:31:19.935Z,0.3
2022-08-30T10:37:24.821Z,0.8
2022-08-30T10:39:26.456Z,0.8
2022-08-30T10:41:28.089Z,0.5
2022-08-30T10:43:32.906Z,0.9
2022-08-30T10:45:34.514Z,1.2
2022-08-30T10:47:36.187Z,0.6
2022-08-30T10:48:38.568Z,0.7
2022-08-30T10:50:41.447Z,0.6
2022-08-30T10:52:41.805Z,0.9
2022-08-30T10:54:43.430Z,0.5
2022-08-30T10:56:48.230Z,0.7
2022-08-30T11:04:54.665Z,0.5
2022-08-30T11:06:56.289Z,1.1
2022-08-30T11:11:02.754Z,0.6
2022-08-30T11:13:04.368Z,1.5
2022-08-30T11:15:05.962Z,1.5
2022-08-30T11:17:07.564Z,1.3
2022-08-30T11:19:09.173Z,0.9
2022-08-30T11:23:12.445Z,0.7
2022-08-30T11:25:18.394Z,1.5
2022-08-30T11:27:18.835Z,4.1
2022-08-30T11:29:20.464Z,1.1
2022-08-30T11:33:23.729Z,11.2
2022-08-30T11:35:25.259Z,1.5
2022-08-30T11:37:26.874Z,1.5
2022-08-30T11:39:31.682Z,0.9
2022-08-30T11:41:33.415Z,0.9
2022-08-30T11:43:34.905Z,0.6
2022-08-30T11:44:37.277Z,0.8
2022-08-30T11:46:38.871Z,0.7
2022-08-30T11:48:40.478Z,0.5
2022-08-30T11:50:46.461Z,0.5
2022-08-30T11:52:46.917Z,0.6
2022-08-30T11:54:52.709Z,0.9
2022-08-30T11:56:50.110Z,0.5
2022-08-30T12:00:53.313Z,4.8
2022-08-30T12:02:55.039Z,1.5
2022-08-30T12:04:56.532Z,0.7
2022-08-30T12:11:04.549Z,1.2
2022-08-30T12:13:06.317Z,0.7
2022-08-30T12:15:07.778Z,0.8
2022-08-30T12:17:09.372Z,0.5
2022-08-30T12:19:10.988Z,0.9
2022-08-30T12:21:15.789Z,0.9
2022-08-30T12:23:17.391Z,0.8
2022-08-30T12:25:18.993Z,0.9
2022-08-30T12:27:20.608Z,1.5
2022-08-30T12:29:22.215Z,1.2
2022-08-30T12:31:23.863Z,1.2
2022-08-30T12:33:29.241Z,1
2022-08-30T12:35:30.239Z,0.8
2022-08-30T12:37:31.831Z,3.1
2022-08-30T12:42:01.878Z,0.7
2022-08-30T12:44:03.423Z,0.8
2022-08-30T12:46:07.331Z,1
2022-08-30T12:48:09.878Z,1.4
2022-08-30T12:50:12.154Z,0.9
2022-08-30T12:52:13.091Z,0.4
2022-08-30T12:54:14.682Z,0.9
2022-08-30T12:56:21.196Z,1
2022-08-30T12:58:18.198Z,1.1
2022-08-30T13:00:19.549Z,1.3
2022-08-30T13:02:24.419Z,0.8
2022-08-30T13:04:25.991Z,1.1
2022-08-30T13:06:29.196Z,1.1
2022-08-30T13:08:30.771Z,1.7
2022-08-30T13:12:34.047Z,0.9
2022-08-30T13:14:35.699Z,2.3
2022-08-30T13:16:45.030Z,1
2022-08-30T13:18:42.148Z,0.8
2022-08-30T13:20:43.806Z,0.5
2022-08-30T13:22:45.406Z,0.6
2022-08-30T13:26:48.696Z,0.9
2022-08-30T13:30:55.160Z,1
2022-08-30T13:32:56.811Z,0.6
2022-08-30T13:34:58.445Z,0.6
2022-08-30T13:36:00.867Z,0.7
2022-08-30T13:38:02.584Z,0.8
2022-08-30T13:40:04.914Z,0.7
2022-08-30T13:42:32.714Z,0.6
2022-08-30T13:44:11.612Z,0.9
2022-08-30T13:46:12.424Z,1.1
2022-08-30T13:48:13.948Z,0.8
2022-08-30T13:50:19.653Z,3
2022-08-30T13:52:21.098Z,0.8
2022-08-30T13:54:18.916Z,0.5
2022-08-30T13:56:20.561Z,1.5
2022-08-30T13:58:25.432Z,2.7
2022-08-30T14:00:27.106Z,1.9
2022-08-30T14:02:28.725Z,0.8
2022-08-30T14:04:30.391Z,0.9
2022-08-30T14:06:33.606Z,1.2
2022-08-30T14:08:52.370Z,0.6
2022-08-30T14:10:41.335Z,0.8
2022-08-30T14:12:53.693Z,1.8
2022-08-30T14:14:43.252Z,2.9
2022-08-30T14:18:45.187Z,0.8
2022-08-30T14:22:48.483Z,0.7
2022-08-30T14:24:50.149Z,1.1
2022-08-30T14:26:54.991Z,1
2022-08-30T14:30:58.312Z,0.7
2022-08-30T14:32:00.820Z,0.7
2022-08-30T14:34:03.400Z,1.4
2022-08-30T14:36:04.059Z,1.3
2022-08-30T14:38:05.724Z,1
2022-08-30T14:40:10.577Z,1.1
2022-08-30T14:42:12.297Z,1.3
2022-08-30T14:44:13.890Z,1.4
2022-08-30T14:46:15.590Z,1.3
2022-08-30T14:48:17.378Z,1.1
2022-08-30T14:50:18.837Z,0.7
2022-08-30T14:52:20.486Z,1.2
2022-08-30T14:54:25.709Z,1.1
2022-08-30T14:56:27.010Z,1
2022-08-30T14:58:28.646Z,0.8
2022-08-30T15:00:30.406Z,0.8
2022-08-30T15:04:33.771Z,1.1
2022-08-30T15:06:35.315Z,0.3
2022-08-30T15:08:40.184Z,0.9
2022-08-30T15:10:41.851Z,1
2022-08-30T15:12:43.502Z,1.7
2022-08-30T15:14:45.184Z,1.5
2022-08-30T15:16:46.842Z,0.6
2022-08-30T15:18:48.530Z,0.5
2022-08-30T15:20:50.208Z,0.6
2022-08-30T15:22:55.047Z,0.5
2022-08-30T15:24:56.745Z,2.4
2022-08-30T15:26:58.389Z,1.5
2022-08-30T15:32:04.217Z,1.7
2022-08-30T15:34:05.830Z,3
2022-08-30T15:40:14.088Z,0.9
2022-08-30T15:42:19.384Z,1.3
2022-08-30T15:44:17.405Z,1.4
2022-08-30T15:46:19.205Z,1
2022-08-30T15:48:20.771Z,1.2
2022-08-30T15:50:25.658Z,2.1
2022-08-30T15:52:27.302Z,1.1
2022-08-30T15:58:32.329Z,3.2
2022-08-30T16:00:34.064Z,5.2
2022-08-30T16:02:35.741Z,4
2022-08-30T16:04:40.589Z,1.3
2022-08-30T16:08:43.899Z,2.2
2022-08-30T16:10:45.589Z,1.3
2022-08-30T16:12:47.259Z,2.5
2022-08-30T16:14:48.929Z,2.2
2022-08-30T16:16:50.615Z,2.2
2022-08-30T16:18:55.495Z,2.2
2022-08-30T16:20:57.172Z,3.3
2022-08-30T16:22:58.830Z,2.1
2022-08-30T16:25:40.908Z,0.8
2022-08-30T16:27:28.961Z,0.8
2022-08-30T16:29:30.653Z,0.9
2022-08-30T16:33:41.167Z,0.6
2022-08-30T16:35:38.881Z,1.5
2022-08-30T16:37:40.562Z,2.6
2022-08-30T16:39:45.854Z,0.8
2022-08-30T16:41:44.793Z,1.4
2022-08-30T16:43:45.721Z,1.7
2022-08-30T16:45:50.495Z,0.7
2022-08-30T16:47:52.205Z,0.8
2022-08-30T16:49:53.880Z,0.6
2022-08-30T16:51:55.781Z,0.9
2022-08-30T16:53:57.275Z,0.9
2022-08-30T16:58:00.662Z,0.4
2022-08-30T17:00:05.554Z,0.9
2022-08-30T17:02:07.442Z,1.1
2022-08-30T17:04:08.948Z,1.3
2022-08-30T17:06:10.667Z,1.1
2022-08-30T17:08:12.337Z,0.9
2022-08-30T17:10:14.095Z,1.2
2022-08-30T17:12:15.906Z,1.8
2022-08-30T17:14:27.974Z,1.5
2022-08-30T17:16:27.704Z,0.7
2022-08-30T17:18:24.408Z,0.9
2022-08-30T17:19:28.602Z,1
2022-08-30T17:21:28.545Z,1
2022-08-30T17:23:30.243Z,0.9
2022-08-30T17:25:34.099Z,1.7
2022-08-30T17:27:36.880Z,2.2
2022-08-30T17:29:38.554Z,1
2022-08-30T17:31:40.332Z,1.4
2022-08-30T17:33:42.080Z,1.2
2022-08-30T17:35:43.885Z,1.2
2022-08-30T17:37:45.728Z,0.6
2022-08-30T17:39:47.528Z,0.9
2022-08-30T17:41:52.749Z,1.2
2022-08-30T17:43:54.344Z,0.9
2022-08-30T17:45:56.149Z,0.9
2022-08-30T17:47:57.782Z,0.9
2022-08-30T17:49:59.630Z,0.5
2022-08-30T17:52:01.393Z,0.8
2022-08-30T17:54:03.144Z,0.8
2022-08-30T17:56:08.316Z,1
2022-08-30T17:58:10.128Z,0.9
2022-08-30T18:02:13.807Z,2.5
2022-08-30T18:04:19.502Z,2
2022-08-30T18:06:17.282Z,1.2
2022-08-30T18:08:19.266Z,1.4
2022-08-30T18:10:33.083Z,1.2
2022-08-30T18:12:25.713Z,0.9
2022-08-30T18:14:27.534Z,1.3
2022-08-30T18:17:31.823Z,1
2022-08-30T18:19:33.554Z,1
2022-08-30T18:21:35.367Z,0.9
2022-08-30T18:23:40.375Z,0.4
2022-08-30T18:25:42.241Z,1.2
2022-08-30T18:27:45.787Z,1.7
2022-08-30T18:29:45.876Z,1
2022-08-30T18:33:49.533Z,1.6
2022-08-30T18:35:51.370Z,3.2
2022-08-30T18:37:56.467Z,2.2
2022-08-30T18:39:58.391Z,1.8
2022-08-30T18:42:00.614Z,2.6
2022-08-30T18:44:26.147Z,1.1
2022-08-30T18:46:03.893Z,1.3
2022-08-30T18:48:05.660Z,1.2
2022-08-30T18:50:07.649Z,0.9
2022-08-30T18:52:12.613Z,0.8
2022-08-30T18:54:14.438Z,0.6
2022-08-30T18:56:16.270Z,1
2022-08-30T18:58:19.945Z,0.8
2022-08-30T19:00:21.473Z,0.5
2022-08-30T19:02:23.317Z,0.9
2022-08-30T19:04:34.049Z,0.8
2022-08-30T19:06:30.285Z,1.7
2022-08-30T19:08:32.141Z,1.6
2022-08-30T19:10:33.944Z,1.2
2022-08-30T19:11:36.511Z,1.8
2022-08-30T19:19:48.473Z,1
2022-08-30T19:27:54.513Z,1.2
2022-08-30T19:29:56.363Z,1
2022-08-30T19:31:58.207Z,1.2
2022-08-30T19:36:05.166Z,1.4
2022-08-30T19:38:06.902Z,1.3
2022-08-30T19:40:08.874Z,0.5
2022-08-30T19:46:14.293Z,1.1
2022-08-30T19:48:22.217Z,1.4
2022-08-30T19:50:21.325Z,0.7
2022-08-30T19:52:23.074Z,1.3
2022-08-30T19:54:24.931Z,1.4
2022-08-30T19:58:28.609Z,1
2022-08-30T20:02:35.554Z,0.9
2022-08-30T20:04:37.341Z,1.3
2022-08-30T20:11:09.734Z,1.1
2022-08-30T20:13:11.614Z,1.3
2022-08-30T20:15:16.807Z,1.2
2022-08-30T20:17:18.543Z,1.4
2022-08-30T20:19:20.441Z,1.1
2022-08-30T20:23:25.259Z,1.2
2022-08-30T20:25:25.948Z,0.9
2022-08-30T20:31:34.829Z,1.3
2022-08-30T20:41:44.485Z,1.3
2022-08-30T20:43:49.142Z,1.1
2022-08-30T20:45:51.023Z,1.5
2022-08-30T20:47:52.854Z,1.2
2022-08-30T20:49:54.660Z,2.8
2022-08-30T20:51:56.523Z,1.5
2022-08-30T20:56:00.257Z,1.9
2022-08-30T20:58:05.331Z,0.7
2022-08-30T21:00:07.230Z,1.8
2022-08-30T21:03:27.254Z,1.9
2022-08-30T21:05:13.428Z,1.7
2022-08-30T21:07:15.268Z,1.4
2022-08-30T21:09:17.140Z,1
2022-08-30T21:11:22.254Z,1.4
2022-08-30T21:13:24.110Z,4.2
2022-08-30T21:15:37.247Z,1.3
2022-08-30T21:17:27.838Z,1.8
2022-08-30T21:19:29.667Z,2
2022-08-30T21:23:33.578Z,1.4
2022-08-30T21:25:38.537Z,2
2022-08-30T21:27:40.374Z,1.6
2022-08-30T21:29:42.191Z,1.7
2022-08-30T21:31:44.038Z,1.8
2022-08-30T21:33:45.921Z,1.4
2022-08-30T21:35:47.761Z,1.8
2022-08-30T21:37:49.616Z,1.6
2022-08-30T21:39:54.704Z,1.7
2022-08-30T21:41:56.544Z,1.9
2022-08-30T21:46:00.291Z,1.7
2022-08-30T21:50:03.957Z,1.3
2022-08-30T21:52:05.793Z,1
2022-08-30T21:56:13.111Z,1.3
2022-08-30T21:58:14.613Z,1
2022-08-30T21:59:17.157Z,1.6
2022-08-30T22:01:19.032Z,1.8
2022-08-30T22:03:21.120Z,1.7
2022-08-30T22:05:22.690Z,2.3
2022-08-30T22:07:27.810Z,1.7
2022-08-30T22:09:29.639Z,1.8
2022-08-30T22:13:33.331Z,1.4
2022-08-30T22:15:35.195Z,1.6
2022-08-30T22:17:37.058Z,1.6
2022-08-30T22:19:38.910Z,2.3
2022-08-30T22:21:43.993Z,2.1
2022-08-30T22:23:45.838Z,2.4
2022-08-30T22:25:47.703Z,3
2022-08-30T22:27:49.546Z,2.7
2022-08-30T22:29:51.411Z,1.5
2022-08-30T22:31:53.369Z,1.6
2022-08-30T22:33:55.087Z,3.5
2022-08-30T22:36:00.212Z,0.6
2022-08-30T22:38:02.076Z,1.2
2022-08-30T22:40:03.969Z,1.7
2022-08-30T22:42:05.764Z,1.4
2022-08-30T22:44:07.680Z,0.8
2022-08-30T22:46:09.580Z,1.3
2022-08-30T22:48:11.310Z,1.5
2022-08-30T22:50:16.398Z,1.8
2022-08-30T22:52:18.255Z,1.2
2022-08-30T22:54:20.118Z,0.8
2022-08-30T22:55:22.651Z,1
2022-08-30T22:57:24.508Z,1.4
2022-08-30T22:59:31.481Z,1.7
2022-08-30T23:01:28.265Z,1.3
2022-08-30T23:03:33.344Z,0.9
2022-08-30T23:05:35.304Z,1.1
2022-08-30T23:07:37.040Z,1
2022-08-30T23:09:38.906Z,0.8
2022-08-30T23:11:40.769Z,1.8
2022-08-30T23:13:42.590Z,1.2
2022-08-30T23:15:44.453Z,0.8
2022-08-30T23:17:49.533Z,1
2022-08-30T23:19:51.422Z,1.1
2022-08-30T23:21:53.254Z,1.1
2022-08-30T23:23:55.094Z,0.8
2022-08-30T23:25:56.925Z,0.9
2022-08-30T23:27:58.779Z,1.5
2022-08-30T23:30:00.626Z,0.9
2022-08-30T23:32:05.801Z,1.3
2022-08-30T23:34:07.600Z,1.3
2022-08-30T23:36:09.438Z,0.8
2022-08-30T23:38:11.285Z,0.9
2022-08-30T23:40:13.196Z,1
2022-08-30T23:42:14.997Z,1.5
2022-08-30T23:44:16.807Z,1.2
2022-08-30T23:46:21.962Z,0.8
2022-08-30T23:48:23.778Z,1.4
2022-08-30T23:50:25.609Z,0.6
2022-08-30T23:52:54.330Z,0.7
2022-08-30T23:54:57.499Z,0.6
2022-08-30T23:56:58.026Z,0.4
